createdAt,value
2019-02-08T00:00:03.646Z,1005.70
2019-02-08T00:05:00.974Z,1005.79
2019-02-08T00:09:57.335Z,1005.81
2019-02-08T00:14:52.670Z,1005.72
2019-02-08T00:19:48.443Z,1005.67
2019-02-08T00:24:45.232Z,1005.72
2019-02-08T00:29:41.719Z,1005.71
2019-02-08T00:34:37.245Z,1005.74
2019-02-08T00:39:32.824Z,1005.67
2019-02-08T00:44:28.410Z,1005.70
2019-02-08T00:49:24.144Z,1005.76
2019-02-08T00:54:19.721Z,1005.76
2019-02-08T00:59:16.552Z,1005.76
2019-02-08T01:04:11.848Z,1005.85
2019-02-08T01:09:07.474Z,1005.76
2019-02-08T01:14:03.983Z,1005.81
2019-02-08T01:19:00.224Z,1005.78
2019-02-08T01:23:56.036Z,1005.76
2019-02-08T01:28:51.496Z,1005.78
2019-02-08T01:33:47.077Z,1005.91
2019-02-08T01:38:42.866Z,1005.86
2019-02-08T01:43:38.560Z,1005.85
2019-02-08T01:48:35.479Z,1005.96
2019-02-08T01:53:30.781Z,1005.85
2019-02-08T01:58:26.946Z,1005.88
2019-02-08T02:03:23.710Z,1005.90
2019-02-08T02:08:19.131Z,1005.88
2019-02-08T02:13:16.133Z,1005.97
2019-02-08T02:18:12.625Z,1005.96
2019-02-08T02:23:08.113Z,1005.97
2019-02-08T02:28:04.100Z,1006.08
2019-02-08T02:32:59.768Z,1006.00
2019-02-08T02:37:55.688Z,1006.06
2019-02-08T02:42:51.473Z,1006.02
2019-02-08T02:47:48.045Z,1006.06
2019-02-08T02:52:43.382Z,1006.07
2019-02-08T02:57:39.789Z,1006.16
2019-02-08T03:02:35.560Z,1006.05
2019-02-08T03:07:31.321Z,1006.05
2019-02-08T03:12:26.863Z,1006.04
2019-02-08T03:17:22.724Z,1006.08
2019-02-08T03:22:18.500Z,1006.02
2019-02-08T03:27:15.237Z,1005.90
2019-02-08T03:32:11.837Z,1005.98
2019-02-08T03:37:07.247Z,1005.90
2019-02-08T03:42:03.944Z,1005.89
2019-02-08T03:46:59.182Z,1005.91
2019-02-08T03:51:55.031Z,1005.86
2019-02-08T03:56:50.587Z,1005.85
2019-02-08T04:01:46.137Z,1005.74
2019-02-08T04:06:41.685Z,1005.76
2019-02-08T04:11:37.549Z,1005.70
2019-02-08T04:16:33.285Z,1005.68
2019-02-08T04:21:28.721Z,1005.75
2019-02-08T04:26:24.537Z,1005.63
2019-02-08T04:31:20.256Z,1005.79
2019-02-08T04:36:16.037Z,1005.77
2019-02-08T04:41:11.912Z,1005.73
2019-02-08T04:46:08.079Z,1005.69
2019-02-08T04:51:03.879Z,1005.62
2019-02-08T04:56:00.700Z,1005.56
2019-02-08T05:00:56.220Z,1005.62
2019-02-08T05:05:52.566Z,1005.61
2019-02-08T05:10:48.221Z,1005.54
2019-02-08T05:15:44.998Z,1005.49
2019-02-08T05:20:40.334Z,1005.45
2019-02-08T05:25:35.927Z,1005.31
2019-02-08T05:30:32.161Z,1005.30
2019-02-08T05:35:28.006Z,1005.37
2019-02-08T05:40:23.846Z,1005.43
2019-02-08T05:45:20.566Z,1005.52
2019-02-08T05:50:15.990Z,1005.39
2019-02-08T05:55:11.989Z,1005.46
2019-02-08T06:00:07.771Z,1005.41
2019-02-08T06:05:03.851Z,1005.28
2019-02-08T06:10:00.669Z,1005.24
2019-02-08T06:14:56.052Z,1005.20
2019-02-08T06:19:51.670Z,1005.14
2019-02-08T06:24:47.285Z,1005.09
2019-02-08T06:29:42.803Z,1005.09
2019-02-08T06:34:41.330Z,1005.10
2019-02-08T06:39:38.036Z,1005.18
2019-02-08T06:44:33.369Z,1005.20
2019-02-08T06:49:29.006Z,1005.20
2019-02-08T06:54:24.891Z,1005.20
2019-02-08T06:59:20.584Z,1005.16
2019-02-08T07:04:16.218Z,1005.15
2019-02-08T07:09:12.299Z,1005.20
2019-02-08T07:14:08.899Z,1005.22
2019-02-08T07:19:05.194Z,1005.27
2019-02-08T07:24:01.836Z,1005.31
2019-02-08T07:28:56.954Z,1005.23
2019-02-08T07:33:52.935Z,1005.28
2019-02-08T07:38:49.636Z,1005.17
2019-02-08T07:43:45.723Z,1005.24
2019-02-08T07:48:41.375Z,1005.36
2019-02-08T07:53:38.155Z,1005.25
2019-02-08T07:58:33.763Z,1005.22
2019-02-08T08:03:29.466Z,1005.32
2019-02-08T08:08:25.298Z,1005.23
2019-02-08T08:13:21.044Z,1005.17
2019-02-08T08:18:17.581Z,1005.19
2019-02-08T08:23:13.420Z,1005.16
2019-02-08T08:28:09.192Z,1005.13
2019-02-08T08:33:05.179Z,1005.12
2019-02-08T08:38:02.106Z,1005.19
2019-02-08T08:42:58.242Z,1005.17
2019-02-08T08:47:54.293Z,1005.09
2019-02-08T08:52:50.957Z,1005.08
2019-02-08T08:57:46.437Z,1004.99
2019-02-08T09:02:41.924Z,1004.89
2019-02-08T09:07:38.167Z,1004.90
2019-02-08T09:12:34.962Z,1004.93
2019-02-08T09:17:30.697Z,1004.89
2019-02-08T09:22:27.260Z,1004.80
2019-02-08T09:27:23.043Z,1004.82
2019-02-08T09:32:20.111Z,1004.81
2019-02-08T09:37:16.795Z,1004.79
2019-02-08T09:42:12.576Z,1004.69
2019-02-08T09:47:09.444Z,1004.75
2019-02-08T09:52:04.984Z,1004.69
2019-02-08T09:57:00.852Z,1004.73
2019-02-08T10:01:57.119Z,1004.82
2019-02-08T10:06:53.026Z,1004.85
2019-02-08T10:11:49.061Z,1004.68
2019-02-08T10:16:44.789Z,1004.68
2019-02-08T10:21:40.697Z,1004.55
2019-02-08T10:26:36.451Z,1004.42
2019-02-08T10:31:33.642Z,1004.49
2019-02-08T10:36:29.131Z,1004.53
2019-02-08T10:41:30.463Z,1004.53
2019-02-08T10:46:24.921Z,1004.49
2019-02-08T10:51:20.767Z,1004.50
2019-02-08T10:56:16.449Z,1004.41
2019-02-08T11:01:12.260Z,1004.29
2019-02-08T11:06:08.026Z,1004.15
2019-02-08T11:11:03.651Z,1004.13
2019-02-08T11:16:00.041Z,1004.15
2019-02-08T11:20:55.446Z,1003.98
2019-02-08T11:25:51.659Z,1003.89
2019-02-08T11:30:47.593Z,1003.88
2019-02-08T11:35:44.122Z,1003.78
2019-02-08T11:40:41.965Z,1003.66
2019-02-08T11:45:38.559Z,1003.75
2019-02-08T11:50:33.831Z,1003.79
2019-02-08T11:55:29.592Z,1003.64
2019-02-08T12:00:25.152Z,1003.52
2019-02-08T12:05:21.256Z,1003.44
2019-02-08T12:10:17.065Z,1003.51
2019-02-08T12:15:12.969Z,1003.35
2019-02-08T12:20:09.743Z,1003.26
2019-02-08T12:25:06.145Z,1003.24
2019-02-08T12:30:01.783Z,1003.05
2019-02-08T12:34:57.652Z,1002.94
2019-02-08T12:39:53.622Z,1002.96
2019-02-08T12:44:50.115Z,1002.81
2019-02-08T12:49:46.120Z,1002.68
2019-02-08T12:54:42.573Z,1002.50
2019-02-08T12:59:38.865Z,1002.45
2019-02-08T13:04:34.756Z,1002.41
2019-02-08T13:09:30.618Z,1002.35
2019-02-08T13:14:27.208Z,1002.25
2019-02-08T13:19:22.902Z,1002.15
2019-02-08T13:24:18.525Z,1002.08
2019-02-08T13:29:14.402Z,1002.10
2019-02-08T13:34:10.316Z,1002.03
2019-02-08T13:39:05.831Z,1001.92
2019-02-08T13:44:02.076Z,1001.78
2019-02-08T13:48:57.892Z,1001.90
2019-02-08T13:53:53.574Z,1001.82
2019-02-08T13:58:49.319Z,1001.70
2019-02-08T14:03:45.564Z,1001.64
2019-02-08T14:08:41.735Z,1001.45
2019-02-08T14:13:40.790Z,1001.42
2019-02-08T14:18:36.740Z,1001.37
2019-02-08T14:23:32.240Z,1001.21
2019-02-08T14:28:28.066Z,1001.18
2019-02-08T14:33:23.802Z,1001.15
2019-02-08T14:38:20.516Z,1001.10
2019-02-08T14:43:15.857Z,1001.12
2019-02-08T14:48:11.804Z,1001.04
2019-02-08T14:53:07.838Z,1001.02
2019-02-08T14:58:04.305Z,1000.92
2019-02-08T15:02:59.784Z,1000.78
2019-02-08T15:07:57.737Z,1000.78
2019-02-08T15:12:53.080Z,1000.77
2019-02-08T15:17:49.729Z,1000.67
2019-02-08T15:22:45.053Z,1000.74
2019-02-08T15:27:40.314Z,1000.78
2019-02-08T15:32:36.301Z,1000.71
2019-02-08T15:37:32.129Z,1000.64
2019-02-08T15:42:28.720Z,1000.65
2019-02-08T15:47:24.376Z,1000.62
2019-02-08T15:52:20.289Z,1000.61
2019-02-08T15:57:16.259Z,1000.52
2019-02-08T16:02:11.684Z,1000.54
2019-02-08T16:07:07.806Z,1000.41
2019-02-08T16:12:03.573Z,1000.28
2019-02-08T16:17:00.382Z,1000.21
2019-02-08T16:21:55.712Z,1000.22
2019-02-08T16:26:51.605Z,1000.03
2019-02-08T16:31:47.752Z,999.96
2019-02-08T16:36:43.515Z,999.96
2019-02-08T16:41:39.166Z,999.90
2019-02-08T16:46:35.772Z,999.88
2019-02-08T16:51:31.586Z,999.81
2019-02-08T16:56:27.374Z,999.76
2019-02-08T17:01:23.834Z,999.74
2019-02-08T17:06:19.692Z,999.60
2019-02-08T17:11:16.341Z,999.45
2019-02-08T17:16:13.113Z,999.30
2019-02-08T17:21:08.480Z,999.28
2019-02-08T17:26:05.843Z,999.19
2019-02-08T17:31:01.651Z,999.17
2019-02-08T17:35:58.287Z,999.21
2019-02-08T17:40:53.898Z,999.03
2019-02-08T17:45:51.003Z,998.97
2019-02-08T17:50:46.509Z,999.03
2019-02-08T17:55:42.289Z,998.87
2019-02-08T18:00:39.265Z,998.68
2019-02-08T18:05:34.782Z,998.66
2019-02-08T18:10:30.447Z,998.50
2019-02-08T18:15:26.067Z,998.57
2019-02-08T18:20:22.238Z,998.60
2019-02-08T18:25:19.176Z,998.53
2019-02-08T18:30:14.746Z,998.48
2019-02-08T18:35:10.640Z,998.39
2019-02-08T18:40:08.183Z,998.25
2019-02-08T18:45:04.818Z,998.18
2019-02-08T18:50:01.165Z,998.13
2019-02-08T18:54:57.519Z,998.06
2019-02-08T18:59:53.042Z,997.97
2019-02-08T19:04:48.660Z,997.71
2019-02-08T19:09:44.344Z,997.79
2019-02-08T19:14:40.860Z,997.72
2019-02-08T19:19:37.571Z,997.66
2019-02-08T19:24:33.074Z,997.60
2019-02-08T19:29:28.818Z,997.54
2019-02-08T19:34:24.625Z,997.48
2019-02-08T19:39:21.740Z,997.26
2019-02-08T19:44:17.112Z,997.12
2019-02-08T19:49:13.859Z,997.02
2019-02-08T19:54:09.211Z,996.88
2019-02-08T19:59:05.868Z,996.94
2019-02-08T20:04:01.721Z,996.87
2019-02-08T20:08:58.980Z,996.74
2019-02-08T20:13:55.547Z,996.70
2019-02-08T20:18:51.058Z,996.56
2019-02-08T20:23:47.979Z,996.64
2019-02-08T20:28:43.562Z,996.55
2019-02-08T20:33:39.434Z,996.57
2019-02-08T20:38:36.285Z,996.42
2019-02-08T20:43:31.673Z,996.30
2019-02-08T20:48:28.096Z,996.18
2019-02-08T20:53:24.044Z,996.14
2019-02-08T20:58:20.754Z,996.06
2019-02-08T21:03:16.180Z,995.86
2019-02-08T21:08:11.954Z,995.78
2019-02-08T21:13:07.647Z,995.83
2019-02-08T21:18:04.308Z,995.77
2019-02-08T21:22:59.969Z,995.75
2019-02-08T21:27:55.771Z,995.87
2019-02-08T21:32:51.658Z,995.70
2019-02-08T21:37:47.212Z,995.66
2019-02-08T21:42:43.971Z,995.63
2019-02-08T21:47:39.698Z,995.66
2019-02-08T21:52:34.990Z,995.65
2019-02-08T21:57:31.899Z,995.68
2019-02-08T22:02:27.208Z,995.57
2019-02-08T22:07:22.977Z,995.55
2019-02-08T22:12:18.821Z,995.56
2019-02-08T22:17:15.609Z,995.27
2019-02-08T22:22:11.866Z,995.20
2019-02-08T22:27:07.582Z,995.20
2019-02-08T22:32:02.920Z,995.28
2019-02-08T22:36:58.568Z,995.20
2019-02-08T22:41:54.223Z,995.20
2019-02-08T22:46:49.951Z,995.17
2019-02-08T22:51:45.615Z,995.17
2019-02-08T22:56:41.553Z,995.12
2019-02-08T23:01:37.183Z,994.90
2019-02-08T23:06:32.946Z,994.83
2019-02-08T23:11:28.462Z,994.80
2019-02-08T23:16:24.101Z,994.79
2019-02-08T23:21:19.483Z,994.62
2019-02-08T23:26:14.986Z,994.70
2019-02-08T23:31:11.324Z,994.70
2019-02-08T23:36:07.147Z,994.58
2019-02-08T23:41:02.929Z,994.49
2019-02-08T23:45:58.518Z,994.41
2019-02-08T23:50:54.110Z,994.50
2019-02-08T23:55:49.753Z,994.50
